Belvidere, New Jersey
Current Conditions -  °F | °C
As of 6:51 AM on Saturday 20 Dec 2014 (Local Time) from KABE Reporting Station
Overcast Overcast  
Wind Chill: 23°   Ceiling: 2600
Heat Index: 31°   Visibility: 10mi
Dew Point: 20°   Wind: 8mph
Humidity: 64%   Direction: 20°NNE
Pressure: 30.25"   Gusts: NA
Location:  40.83°N, 75.08°W
Report Text: KABE 201151Z 02007KT 10SM OVC026 M01/M07 A3025 RMK AO2 SLP248 T10061067 10000 21006 51010
Loading
Personal Weather Stations






























Interactive Weather Map New forecast layout! Learn more

10-Day Weather Forecast

Advertisements
Track Severe Weather on mobile